Aix Les Milles, France

11:04 AM CEST on September 27, 2016 (GMT +0200)
Chemin du Serre | | Change Station

Elev 452 ft 43.50 °N, 5.39 °E | Updated 8 minutes ago

Clear
Clear
62.4 °F
Feels Like 62.4 °F
N
2.5
Wind Variable Wind from NW
Gusts 14.3 mph

Today
High -- | Low -- °F
--% Chance of Precip.
Yesterday
High -- | Low -- °F
Precip. -- in
Pressure 30.21 in
Visibility -9999.0 miles
Clouds
Dew Point 58 °F
Humidity 85%
Rainfall Not available.
Snow Depth Not available.
7:31 AM 7:26 PM
Waning Crescent, 13% visible
METAR LFML 270900Z AUTO 29006KT CAVOK 21/14 Q1023 NOSIG
Pressure 30.21 in
Visibility -9999.0 miles
Clouds
Dew Point 58 °F
Humidity 85%
Rainfall Not available.
Snow Depth Not available.
7:31 AM 7:26 PM
Waning Crescent, 13% visible
METAR LFML 270900Z AUTO 29006KT CAVOK 21/14 Q1023 NOSIG

10-Day Weather Forecast

×

Almanac

Astronomy

Sep. 27, 2016 Rise Set
Actual Time
Civil Twilight
Nautical Twilight
Astronomical Twilight
Moon
Length of Visible Light
Length of Day
Tomorrow will be .
, % of the Moon is Illuminated

Today's Extremes

Country Highs Country Lows

Community

WunderPhotos

Upload Photos

1,942,040 photos uploaded!

WunderBlog® & News

Nearby

Air Quality

  Air Quality AQ Index Pollutant
Not available.

Snow Depth

Station Depth Elevation

Earthquake Activity

City Distance Mag. Time & Date
Minimum magnitude displayed is 2.5.

Coastal Water Temperatures

Place Temperature

Stations

Nearby Weather Stations

Station Location Temp. Windchill Dew Point Humidity Wind Precip. Elev Updated Type